DKH1606 ZSHC-ZSPD
Flight info
| Callsign | DKH1606 |
|---|---|
| Flight time | N/A |
| Altitude | 16700 |
| Route | OKTUG9D OKTUG B221 AND G204 DADAT |
| Aircraft | A321/M-SDE3FGHIRWY/LB1 |
Departure
| Time | 2026-04-30 14:48 |
|---|---|
| Airport | Hangzhou Xiaoshan International Airport (ZSHC) |
Arrival
| Time | N/A |
|---|---|
| Airport | Shanghai Pudong International Airport (ZSPD) |
| Time | Latitude | Longitude | Altitude | Speed | Heading |
|---|---|---|---|---|---|
| 2026-04-30 14:08 | 30.24034 | 120.43480 | 31 ft | 0 kts | 243° |
| 2026-04-30 14:30 | 30.24039 | 120.43491 | 32 ft | 4 kts | 241° |
| 2026-04-30 14:31 | 30.24070 | 120.43541 | 32 ft | 4 kts | 221° |
| 2026-04-30 14:31 | 30.24078 | 120.43549 | 32 ft | 0 kts | 217° |
| 2026-04-30 14:35 | 30.24038 | 120.43559 | 32 ft | 10 kts | 154° |
| 2026-04-30 14:35 | 30.23962 | 120.43607 | 32 ft | 9 kts | 149° |
| 2026-04-30 14:35 | 30.23937 | 120.43663 | 31 ft | 8 kts | 92° |
| 2026-04-30 14:36 | 30.23913 | 120.43708 | 32 ft | 7 kts | 152° |
| 2026-04-30 14:36 | 30.23853 | 120.43744 | 31 ft | 12 kts | 153° |
| 2026-04-30 14:36 | 30.23760 | 120.43798 | 32 ft | 18 kts | 153° |
| 2026-04-30 14:36 | 30.23644 | 120.43865 | 32 ft | 19 kts | 153° |
| 2026-04-30 14:37 | 30.23534 | 120.43929 | 32 ft | 16 kts | 153° |
| 2026-04-30 14:37 | 30.23469 | 120.43957 | 32 ft | 6 kts | 199° |
| 2026-04-30 14:37 | 30.23448 | 120.43918 | 32 ft | 8 kts | 242° |
| 2026-04-30 14:37 | 30.23412 | 120.43840 | 29 ft | 12 kts | 242° |
| 2026-04-30 14:38 | 30.23362 | 120.43776 | 32 ft | 10 kts | 185° |
| 2026-04-30 14:38 | 30.23299 | 120.43775 | 32 ft | 11 kts | 219° |
| 2026-04-30 14:38 | 30.23255 | 120.43689 | 32 ft | 11 kts | 243° |
| 2026-04-30 14:38 | 30.23253 | 120.43685 | 32 ft | 0 kts | 243° |
| 2026-04-30 14:40 | 30.23252 | 120.43682 | 32 ft | 2 kts | 243° |
| 2026-04-30 14:40 | 30.23239 | 120.43652 | 29 ft | 8 kts | 243° |
| 2026-04-30 14:40 | 30.23213 | 120.43594 | 32 ft | 8 kts | 242° |
| 2026-04-30 14:41 | 30.23189 | 120.43540 | 34 ft | 7 kts | 243° |
| 2026-04-30 14:41 | 30.23162 | 120.43479 | 32 ft | 10 kts | 243° |
| 2026-04-30 14:41 | 30.23128 | 120.43401 | 33 ft | 11 kts | 243° |
| 2026-04-30 14:41 | 30.23095 | 120.43327 | 33 ft | 10 kts | 243° |
| 2026-04-30 14:42 | 30.23065 | 120.43258 | 32 ft | 9 kts | 248° |
| 2026-04-30 14:42 | 30.23071 | 120.43213 | 32 ft | 0 kts | 304° |
| 2026-04-30 14:43 | 30.23079 | 120.43203 | 32 ft | 3 kts | 311° |
| 2026-04-30 14:43 | 30.23093 | 120.43186 | 32 ft | 4 kts | 311° |
| 2026-04-30 14:43 | 30.23097 | 120.43131 | 32 ft | 8 kts | 250° |
| 2026-04-30 14:44 | 30.23071 | 120.43069 | 32 ft | 11 kts | 243° |
| 2026-04-30 14:44 | 30.23032 | 120.42982 | 32 ft | 12 kts | 243° |
| 2026-04-30 14:44 | 30.22995 | 120.42938 | 32 ft | 11 kts | 201° |
| 2026-04-30 14:44 | 30.22925 | 120.42930 | 31 ft | 10 kts | 215° |
| 2026-04-30 14:45 | 30.22888 | 120.42861 | 32 ft | 10 kts | 242° |
| 2026-04-30 14:45 | 30.22846 | 120.42767 | 32 ft | 9 kts | 243° |
| 2026-04-30 14:45 | 30.22825 | 120.42719 | 32 ft | 12 kts | 243° |
| 2026-04-30 14:45 | 30.22769 | 120.42592 | 32 ft | 23 kts | 243° |
| 2026-04-30 14:46 | 30.22693 | 120.42421 | 32 ft | 24 kts | 243° |
| 2026-04-30 14:46 | 30.22619 | 120.42255 | 32 ft | 23 kts | 243° |
| 2026-04-30 14:46 | 30.22548 | 120.42093 | 32 ft | 22 kts | 243° |
| 2026-04-30 14:46 | 30.22479 | 120.41939 | 32 ft | 13 kts | 243° |
| 2026-04-30 14:47 | 30.22410 | 120.41905 | 32 ft | 12 kts | 159° |
| 2026-04-30 14:47 | 30.22335 | 120.41950 | 30 ft | 13 kts | 152° |
| 2026-04-30 14:47 | 30.22326 | 120.42027 | 31 ft | 10 kts | 70° |
| 2026-04-30 14:47 | 30.22358 | 120.42102 | 32 ft | 15 kts | 63° |
| 2026-04-30 14:48 | 30.22485 | 120.42387 | 32 ft | 74 kts | 63° |
| 2026-04-30 14:48 | 30.22819 | 120.43140 | 33 ft | 133 kts | 63° |
| 2026-04-30 14:48 | 30.23304 | 120.44254 | 103 ft | 170 kts | 64° |
| 2026-04-30 14:48 | 30.23841 | 120.45502 | 638 ft | 175 kts | 66° |
| 2026-04-30 14:49 | 30.24052 | 120.46884 | 1255 ft | 177 kts | 92° |
| 2026-04-30 14:49 | 30.23936 | 120.48308 | 1810 ft | 183 kts | 97° |
| 2026-04-30 14:49 | 30.23752 | 120.49849 | 2051 ft | 204 kts | 98° |
| 2026-04-30 14:49 | 30.23539 | 120.51567 | 2230 ft | 228 kts | 98° |
| 2026-04-30 14:50 | 30.23078 | 120.55569 | 3179 ft | 265 kts | 97° |
| 2026-04-30 14:50 | 30.22793 | 120.57705 | 3938 ft | 273 kts | 103° |
| 2026-04-30 14:51 | 30.21685 | 120.62001 | 5537 ft | 284 kts | 105° |
| 2026-04-30 14:51 | 30.21066 | 120.64187 | 6344 ft | 288 kts | 105° |
| 2026-04-30 14:51 | 30.19793 | 120.68673 | 7793 ft | 299 kts | 105° |
| 2026-04-30 14:52 | 30.19116 | 120.70971 | 8497 ft | 306 kts | 111° |
| 2026-04-30 14:52 | 30.16895 | 120.75307 | 9718 ft | 321 kts | 121° |
| 2026-04-30 14:52 | 30.15704 | 120.77495 | 9833 ft | 322 kts | 121° |
| 2026-04-30 14:53 | 30.13339 | 120.81885 | 9853 ft | 321 kts | 117° |
| 2026-04-30 14:53 | 30.12447 | 120.84235 | 9855 ft | 319 kts | 106° |
| 2026-04-30 14:54 | 30.10996 | 120.89049 | 9852 ft | 319 kts | 107° |
| 2026-04-30 14:54 | 30.10052 | 120.93997 | 9846 ft | 313 kts | 85° |
| 2026-04-30 14:55 | 30.10965 | 120.98811 | 10326 ft | 310 kts | 59° |
| 2026-04-30 14:55 | 30.12082 | 121.01006 | 10560 ft | 326 kts | 47° |
| 2026-04-30 14:55 | 30.14950 | 121.05430 | 11320 ft | 354 kts | 47° |
| 2026-04-30 14:56 | 30.17933 | 121.10067 | 12599 ft | 365 kts | 47° |
| 2026-04-30 14:56 | 30.20998 | 121.14856 | 13889 ft | 375 kts | 47° |
| 2026-04-30 14:57 | 30.22557 | 121.17294 | 14480 ft | 379 kts | 47° |
| 2026-04-30 14:57 | 30.25728 | 121.22254 | 15631 ft | 388 kts | 47° |
| 2026-04-30 14:58 | 30.28838 | 121.27484 | 16677 ft | 402 kts | 50° |
| 2026-04-30 14:58 | 30.30368 | 121.30203 | 16798 ft | 405 kts | 50° |
| 2026-04-30 14:58 | 30.33419 | 121.35693 | 16828 ft | 405 kts | 50° |
| 2026-04-30 14:59 | 30.36455 | 121.41104 | 16140 ft | 397 kts | 50° |
| 2026-04-30 15:00 | 30.40906 | 121.48951 | 14930 ft | 383 kts | 49° |
| 2026-04-30 15:00 | 30.43806 | 121.54057 | 14069 ft | 376 kts | 49° |